< Typhoon 198122 1981 Season Typhoon 198124 >
Typhoon 198123 (FABIAN)
General InformationTrack Information on Google MapsDetailed Wind InformationList of All Images || Disaster Info.ResourceGoogle EarthGE AnimationAtom FeedGeoJSON
Detalied Best Track (Time Zone = UTC)
Year Month Day Hour Lat. Long. Pressure (hPa) Wind (kt) Class Image Chart
1981 10 10 18 9.0 130.0 1004 0 2 Image Chart
1981 10 11 00 9.0 129.0 1004 0 2 Image Chart
1981 10 11 06 9.0 128.0 1004 0 2 Image Chart
1981 10 11 12 9.8 127.0 1004 0 2 Image Chart
1981 10 11 18 10.0 126.0 1004 0 2 Image Chart
1981 10 12 00 11.0 124.5 1006 0 2 Image Chart
1981 10 12 06 11.5 123.5 1004 0 2 Image Chart
1981 10 12 12 11.6 122.0 1004 0 2 Image Chart
1981 10 12 18 12.0 120.0 1004 0 2 Image Chart
1981 10 13 00 12.0 118.0 1004 0 2 Image Chart
1981 10 13 06 11.6 115.8 1000 0 2 Image Chart
1981 10 13 12 11.5 114.0 1000 0 2 Image Chart
1981 10 13 18 11.5 112.7 994 40 3 Image Chart
1981 10 14 00 11.4 110.9 994 40 3 Image Chart
1981 10 14 06 11.5 109.8 994 45 3 Image Chart
1981 10 14 12 11.8 108.5 996 40 3 Image Chart
1981 10 14 18 13.0 107.0 1002 0 2 Image Chart
1981 10 15 00 13.0 105.0 1004 0 2 Image Chart
1981 10 15 06 13.0 103.0 1004 0 2 Image Chart
1981 10 15 12 14.0 102.0 1004 0 2 Image Chart
1981 10 15 18 15.0 101.0 1006 0 2 Image Chart
1981 10 16 00 16.0 100.0 1006 0 6 Image Chart
1981 10 16 06 17.0 99.0 1006 0 6 Image Chart
Japan Meteorological Agency Best Track Data | Correction Date : 1992-10-21
< Typhoon 198122 1981 Season Typhoon 198124 >

Help